Terminal Aerodrome Forecast
Issued by NWS Mt. Holly, NJ

Home | Current Version | Previous Version | Text Only | Print | Product List | Glossary On
Versions: 1 2 3 4 5 6 7 8 9 10 11 12
000
FTUS41 KPHI 252350
TAFRDG
TAF
KRDG 252350Z 2600/2624 18005KT P6SM FEW025
     FM260200 VRB02KT P6SM SCT070
      TEMPO 2607/2611 4SM -SHRA BR BKN035
     FM261300 30008KT P6SM SCT025=

USA.gov is the U.S. government's official web portal to all federal, state and local government web resources and services.